createdAt,value
2023-03-29T00:01:12.229Z,101823.41
2023-03-29T00:04:00.442Z,101816.34
2023-03-29T00:06:28.954Z,101808.44
2023-03-29T00:08:55.609Z,101810.06
2023-03-29T00:11:25.182Z,101809.16
2023-03-29T00:13:53.526Z,101808.22
2023-03-29T00:16:20.141Z,101800.13
2023-03-29T00:18:46.719Z,101802.72
2023-03-29T00:21:13.419Z,101794.66
2023-03-29T00:23:39.996Z,101797.22
2023-03-29T00:26:08.106Z,101791.81
2023-03-29T00:28:35.232Z,101789.09
2023-03-29T00:31:08.545Z,101796.06
2023-03-29T00:33:34.973Z,101779.91
2023-03-29T00:36:01.858Z,101785.97
2023-03-29T00:38:28.601Z,101786.69
2023-03-29T00:40:55.348Z,101784.88
2023-03-29T00:43:22.150Z,101779.38
2023-03-29T00:45:48.718Z,101777.50
2023-03-29T00:48:19.981Z,101777.41
2023-03-29T00:50:50.913Z,101771.91
2023-03-29T00:53:20.988Z,101768.25
2023-03-29T00:55:52.019Z,101770.75
2023-03-29T00:58:24.580Z,101770.59
2023-03-29T01:00:57.600Z,101766.91
2023-03-29T01:03:30.253Z,101756.16
2023-03-29T01:05:59.592Z,101750.72
2023-03-29T01:08:30.202Z,101750.66
2023-03-29T01:11:02.723Z,101751.38
2023-03-29T01:13:35.550Z,101744.16
2023-03-29T01:16:03.208Z,101743.97
2023-03-29T01:18:31.272Z,101734.16
2023-03-29T01:21:14.928Z,101731.41
2023-03-29T01:24:07.606Z,101709.03
2023-03-29T01:26:45.214Z,101712.56
2023-03-29T01:29:20.104Z,101705.31
2023-03-29T01:31:52.355Z,101700.78
2023-03-29T01:34:24.068Z,101700.69
2023-03-29T01:36:55.406Z,101689.06
2023-03-29T01:39:21.924Z,101701.47
2023-03-29T01:41:58.204Z,101695.19
2023-03-29T01:44:32.402Z,101690.72
2023-03-29T01:47:08.581Z,101683.56
2023-03-29T01:49:41.108Z,101678.22
2023-03-29T01:52:14.220Z,101673.72
2023-03-29T01:54:46.101Z,101680.78
2023-03-29T01:57:14.271Z,101671.84
2023-03-29T01:59:46.188Z,101670.97
2023-03-29T02:02:15.987Z,101671.84
2023-03-29T02:04:47.303Z,101665.56
2023-03-29T02:07:17.272Z,101662.91
2023-03-29T02:09:44.989Z,101653.16
2023-03-29T02:12:13.392Z,101652.28
2023-03-29T02:14:39.951Z,101645.13
2023-03-29T02:17:16.647Z,101644.25
2023-03-29T02:19:44.409Z,101646.06
2023-03-29T02:22:11.164Z,101628.25
2023-03-29T02:24:40.816Z,101631.84
2023-03-29T02:27:07.433Z,101628.25
2023-03-29T02:29:34.151Z,101625.63
2023-03-29T02:32:10.408Z,101623.06
2023-03-29T02:34:45.085Z,101622.97
2023-03-29T02:37:15.388Z,101625.63
2023-03-29T02:39:42.550Z,101619.47
2023-03-29T02:42:10.323Z,101611.53
2023-03-29T02:44:40.648Z,101611.59
2023-03-29T02:47:13.455Z,101608.06
2023-03-29T02:49:41.551Z,101602.81
2023-03-29T02:52:13.050Z,101595.81
2023-03-29T02:54:40.879Z,101604.75
2023-03-29T02:57:07.555Z,101589.78
2023-03-29T02:59:34.601Z,101584.63
2023-03-29T03:02:01.321Z,101587.34
2023-03-29T03:04:27.950Z,101585.63
2023-03-29T03:06:55.886Z,101583.94
2023-03-29T03:09:22.574Z,101584.06
2023-03-29T03:11:49.264Z,101586.84
2023-03-29T03:14:15.833Z,101575.44
2023-03-29T03:16:42.762Z,101576.47
2023-03-29T03:19:09.578Z,101579.41
2023-03-29T03:21:36.462Z,101562.75
2023-03-29T03:24:04.701Z,101569.03
2023-03-29T03:26:31.319Z,101568.28
2023-03-29T03:28:58.052Z,101565.78
2023-03-29T03:31:25.132Z,101564.03
2023-03-29T03:33:51.840Z,101557.03
2023-03-29T03:36:18.469Z,101562.47
2023-03-29T03:38:45.342Z,101556.28
2023-03-29T03:41:13.572Z,101554.63
2023-03-29T03:43:40.216Z,101557.28
2023-03-29T03:46:07.019Z,101554.72
2023-03-29T03:48:33.691Z,101554.78
2023-03-29T03:51:00.505Z,101554.88
2023-03-29T03:53:27.846Z,101551.44
2023-03-29T03:55:55.499Z,101555.91
2023-03-29T03:58:23.798Z,101549.69
2023-03-29T04:00:51.281Z,101552.47
2023-03-29T04:03:18.393Z,101552.53
2023-03-29T04:05:46.387Z,101554.34
2023-03-29T04:08:13.615Z,101548.22
2023-03-29T04:10:40.546Z,101551.84
2023-03-29T04:13:07.181Z,101548.31
2023-03-29T04:15:35.438Z,101545.72
2023-03-29T04:18:02.130Z,101551.91
2023-03-29T04:20:28.885Z,101545.72
2023-03-29T04:22:55.727Z,101550.19
2023-03-29T04:25:22.292Z,101542.16
2023-03-29T04:27:50.686Z,101550.28
2023-03-29T04:30:17.420Z,101544.94
2023-03-29T04:32:45.468Z,101547.59
2023-03-29T04:35:12.046Z,101540.47
2023-03-29T04:37:38.753Z,101530.63
2023-03-29T04:40:06.523Z,101543.97
2023-03-29T04:42:33.096Z,101534.16
2023-03-29T04:44:59.713Z,101538.63
2023-03-29T04:47:26.720Z,101538.63
2023-03-29T04:49:54.892Z,101532.38
2023-03-29T04:52:24.287Z,101525.28
2023-03-29T04:54:51.133Z,101526.16
2023-03-29T04:57:17.780Z,101526.09
2023-03-29T04:59:44.562Z,101524.28
2023-03-29T05:02:11.508Z,101524.22
2023-03-29T05:04:38.112Z,101518.03
2023-03-29T05:07:06.057Z,101515.25
2023-03-29T05:09:35.023Z,101519.66
2023-03-29T05:12:02.188Z,101520.44
2023-03-29T05:14:28.790Z,101518.59
2023-03-29T05:16:55.432Z,101514.94
2023-03-29T05:19:22.040Z,101520.09
2023-03-29T05:21:49.446Z,101507.53
2023-03-29T05:24:17.592Z,101506.44
2023-03-29T05:26:44.525Z,101514.25
2023-03-29T05:29:11.262Z,101502.47
2023-03-29T05:31:38.043Z,101504.97
2023-03-29T05:34:04.662Z,101503.78
2023-03-29T05:36:31.353Z,101510.59
2023-03-29T05:38:57.973Z,101504.16
2023-03-29T05:41:26.188Z,101508.19
2023-03-29T05:43:52.815Z,101499.84
2023-03-29T05:46:19.517Z,101496.84
2023-03-29T05:48:46.291Z,101494.59
2023-03-29T05:51:12.925Z,101498.63
2023-03-29T05:53:39.561Z,101499.16
2023-03-29T05:56:07.073Z,101496.03
2023-03-29T05:58:35.080Z,101498.28
2023-03-29T06:01:01.937Z,101493.44
2023-03-29T06:03:29.049Z,101494.81
2023-03-29T06:05:57.992Z,101491.78
2023-03-29T06:08:24.948Z,101485.31
2023-03-29T06:10:51.565Z,101486.72
2023-03-29T06:13:18.164Z,101484.56
2023-03-29T06:15:46.133Z,101487.66
2023-03-29T06:18:12.835Z,101487.31
2023-03-29T06:20:39.418Z,101485.03
2023-03-29T06:23:06.036Z,101484.47
2023-03-29T06:25:32.600Z,101479.59
2023-03-29T06:27:59.328Z,101473.88
2023-03-29T06:30:25.941Z,101472.63
2023-03-29T06:32:53.977Z,101469.66
2023-03-29T06:35:20.678Z,101471.09
2023-03-29T06:37:47.338Z,101485.06
2023-03-29T06:40:14.008Z,101478.47
2023-03-29T06:42:40.598Z,101479.06
2023-03-29T06:45:07.995Z,101470.53
2023-03-29T06:47:34.798Z,101469.97
2023-03-29T06:50:02.794Z,101469.38
2023-03-29T06:52:29.395Z,101460.84
2023-03-29T06:54:56.436Z,101466.47
2023-03-29T06:57:23.084Z,101465.91
2023-03-29T06:59:49.693Z,101471.50
2023-03-29T07:02:16.321Z,101471.00
2023-03-29T07:04:43.049Z,101473.06
2023-03-29T07:07:11.010Z,101474.19
2023-03-29T07:09:37.955Z,101466.41
2023-03-29T07:12:04.633Z,101465.00
2023-03-29T07:14:31.237Z,101467.09
2023-03-29T07:16:58.381Z,101467.31
2023-03-29T07:19:25.019Z,101468.31
2023-03-29T07:21:52.409Z,101466.72
2023-03-29T07:24:20.895Z,101463.41
2023-03-29T07:27:00.040Z,101461.16
2023-03-29T07:29:30.526Z,101457.09
2023-03-29T07:31:57.248Z,101456.47
2023-03-29T07:34:24.209Z,101458.38
2023-03-29T07:36:50.865Z,101443.44
2023-03-29T07:39:17.458Z,101451.00
2023-03-29T07:41:45.436Z,101451.94
2023-03-29T07:44:12.098Z,101451.13
2023-03-29T07:46:38.820Z,101447.44
2023-03-29T07:49:05.523Z,101450.00
2023-03-29T07:51:32.178Z,101453.50
2023-03-29T07:53:58.803Z,101458.94
2023-03-29T07:56:25.429Z,101449.22
2023-03-29T07:58:53.446Z,101449.28
2023-03-29T08:01:20.641Z,101449.22
2023-03-29T08:03:47.746Z,101449.84
2023-03-29T08:06:14.399Z,101445.50
2023-03-29T08:08:40.965Z,101446.50
2023-03-29T08:11:07.590Z,101439.03
2023-03-29T08:13:34.254Z,101436.25
2023-03-29T08:16:02.240Z,101436.00
2023-03-29T08:18:28.839Z,101433.81
2023-03-29T08:20:55.659Z,101432.09
2023-03-29T08:23:22.294Z,101432.84
2023-03-29T08:25:48.940Z,101426.00
2023-03-29T08:28:15.593Z,101422.97
2023-03-29T08:30:42.259Z,101411.53
2023-03-29T08:33:10.271Z,101414.19
2023-03-29T08:35:36.948Z,101414.63
2023-03-29T08:38:03.691Z,101399.38
2023-03-29T08:40:30.598Z,101405.00
2023-03-29T08:43:34.994Z,101401.50
2023-03-29T08:46:14.832Z,101408.19
2023-03-29T08:48:46.974Z,101395.09
2023-03-29T08:51:20.685Z,101399.56
2023-03-29T08:53:51.570Z,101398.50
2023-03-29T08:56:22.872Z,101384.53
2023-03-29T08:58:51.668Z,101387.84
2023-03-29T09:01:22.842Z,101394.13
2023-03-29T09:04:03.204Z,101387.09
2023-03-29T09:06:29.870Z,101388.13
2023-03-29T09:08:56.564Z,101383.72
2023-03-29T09:11:44.984Z,101382.38
2023-03-29T09:14:37.636Z,101373.88
2023-03-29T09:17:15.672Z,101379.41
2023-03-29T09:19:51.312Z,101377.00
2023-03-29T09:22:28.567Z,101375.00
2023-03-29T09:25:05.916Z,101381.28
2023-03-29T09:27:39.091Z,101370.44
2023-03-29T09:30:14.734Z,101366.44
2023-03-29T09:32:50.499Z,101362.25
2023-03-29T09:35:22.299Z,101371.28
2023-03-29T09:37:52.200Z,101365.53
2023-03-29T09:40:22.494Z,101368.22
2023-03-29T09:42:51.330Z,101373.63
2023-03-29T09:45:17.928Z,101363.78
2023-03-29T09:47:49.068Z,101357.47
2023-03-29T09:50:30.747Z,101353.34
2023-03-29T09:52:58.238Z,101355.09
2023-03-29T09:55:28.462Z,101345.41
2023-03-29T09:57:57.990Z,101346.16
2023-03-29T10:00:25.091Z,101344.66
2023-03-29T10:02:52.878Z,101339.56
2023-03-29T10:05:21.092Z,101343.38
2023-03-29T10:07:51.926Z,101325.03
2023-03-29T10:10:23.958Z,101330.03
2023-03-29T10:12:53.042Z,101324.59
2023-03-29T10:15:29.044Z,101324.06
2023-03-29T10:17:59.642Z,101319.06
2023-03-29T10:20:27.976Z,101313.59
2023-03-29T10:22:57.364Z,101307.13
2023-03-29T10:25:28.806Z,101310.97
2023-03-29T10:28:02.553Z,101315.09
2023-03-29T10:30:32.199Z,101308.44
2023-03-29T10:33:00.082Z,101308.22
2023-03-29T10:35:33.133Z,101303.09
2023-03-29T10:38:03.942Z,101302.38
2023-03-29T10:40:33.228Z,101296.75
2023-03-29T10:43:01.074Z,101301.19
2023-03-29T10:45:30.599Z,101295.03
2023-03-29T10:47:58.535Z,101293.19
2023-03-29T10:50:26.330Z,101285.69
2023-03-29T10:52:54.473Z,101275.28
2023-03-29T10:55:23.685Z,101276.75
2023-03-29T10:58:00.172Z,101276.09
2023-03-29T11:00:34.398Z,101275.06
2023-03-29T11:03:25.381Z,101272.03
2023-03-29T11:05:56.249Z,101283.50
2023-03-29T11:08:50.385Z,101268.94
2023-03-29T11:11:40.265Z,101272.84
2023-03-29T11:14:20.127Z,101274.09
2023-03-29T11:16:55.768Z,101270.72
2023-03-29T11:19:45.364Z,101273.63
2023-03-29T11:22:19.921Z,101267.19
2023-03-29T11:25:07.639Z,101265.81
2023-03-29T11:27:41.787Z,101253.06
2023-03-29T11:30:18.045Z,101260.53
2023-03-29T11:32:54.948Z,101264.50
2023-03-29T11:35:41.216Z,101258.22
2023-03-29T11:38:16.146Z,101249.56
2023-03-29T11:40:53.446Z,101243.97
2023-03-29T11:43:26.670Z,101249.25
2023-03-29T11:45:56.984Z,101248.91
2023-03-29T11:48:28.889Z,101251.03
2023-03-29T11:51:00.704Z,101254.28
2023-03-29T11:53:30.983Z,101244.91
2023-03-29T11:56:06.508Z,101244.25
2023-03-29T11:58:39.073Z,101250.03
2023-03-29T12:01:10.945Z,101245.94
2023-03-29T12:03:44.750Z,101240.16
2023-03-29T12:06:20.363Z,101243.91
2023-03-29T12:08:52.737Z,101248.31
2023-03-29T12:11:26.885Z,101247.25
2023-03-29T12:13:58.114Z,101241.16
2023-03-29T12:16:29.457Z,101242.88
2023-03-29T12:18:58.190Z,101237.41
2023-03-29T12:21:28.617Z,101237.22
2023-03-29T12:23:55.388Z,101226.53
2023-03-29T12:26:43.388Z,101226.53
2023-03-29T12:29:27.949Z,101229.06
2023-03-29T12:32:18.463Z,101228.41
2023-03-29T12:35:01.571Z,101221.06
2023-03-29T12:37:37.938Z,101213.03
2023-03-29T12:40:12.530Z,101208.63
2023-03-29T12:42:53.257Z,101205.94
2023-03-29T12:45:28.370Z,101210.88
2023-03-29T12:47:55.892Z,101205.09
2023-03-29T12:50:26.102Z,101188.91
2023-03-29T12:52:52.826Z,101186.19
2023-03-29T12:55:29.654Z,101189.78
2023-03-29T12:58:06.147Z,101185.03
2023-03-29T13:00:42.371Z,101184.31
2023-03-29T13:03:21.538Z,101183.47
2023-03-29T13:05:59.454Z,101169.00
2023-03-29T13:08:32.952Z,101181.25
2023-03-29T13:10:59.511Z,101181.25
2023-03-29T13:13:31.111Z,101181.28
2023-03-29T13:16:12.713Z,101179.88
2023-03-29T13:18:54.403Z,101181.25
2023-03-29T13:21:27.221Z,101190.78
2023-03-29T13:24:02.056Z,101188.91
2023-03-29T13:26:51.386Z,101188.06
2023-03-29T13:29:43.383Z,101190.78
2023-03-29T13:32:35.815Z,101182.81
2023-03-29T13:35:11.641Z,101172.75
2023-03-29T13:37:47.474Z,101171.03
2023-03-29T13:40:57.782Z,101164.56
2023-03-29T13:43:31.972Z,101159.81
2023-03-29T13:46:22.731Z,101162.88
2023-03-29T13:48:59.257Z,101160.50
2023-03-29T13:51:40.458Z,101159.66
2023-03-29T13:54:15.344Z,101165.63
2023-03-29T13:56:57.986Z,101165.63
2023-03-29T13:59:29.782Z,101165.78
2023-03-29T14:02:00.471Z,101164.91
2023-03-29T14:04:32.318Z,101154.53
2023-03-29T14:07:00.754Z,101161.47
2023-03-29T14:09:31.517Z,101166.25
2023-03-29T14:11:59.609Z,101168.59
2023-03-29T14:14:27.515Z,101167.19
2023-03-29T14:16:57.044Z,101175.31
2023-03-29T14:19:30.814Z,101165.28
2023-03-29T14:21:59.034Z,101171.22
2023-03-29T14:24:27.544Z,101160.97
2023-03-29T14:26:54.732Z,101163.38
2023-03-29T14:29:22.387Z,101161.66
2023-03-29T14:31:50.945Z,101158.25
2023-03-29T14:34:19.215Z,101154.84
2023-03-29T14:36:48.009Z,101149.56
2023-03-29T14:39:17.376Z,101148.72
2023-03-29T14:41:49.960Z,101162.31
2023-03-29T14:44:18.095Z,101154.13
2023-03-29T14:46:45.625Z,101155.63
2023-03-29T14:49:15.744Z,101164.97
2023-03-29T14:51:44.309Z,101156.78
2023-03-29T14:54:18.229Z,101166.09
2023-03-29T14:56:46.290Z,101158.75
2023-03-29T14:59:24.132Z,101152.28
2023-03-29T15:01:50.865Z,101156.31
2023-03-29T15:04:17.566Z,101154.75
2023-03-29T15:06:46.704Z,101153.06
2023-03-29T15:09:18.056Z,101144.19
2023-03-29T15:11:51.874Z,101136.19
2023-03-29T15:14:20.329Z,101139.75
2023-03-29T15:16:48.334Z,101131.16
2023-03-29T15:19:18.269Z,101123.38
2023-03-29T15:21:48.698Z,101113.03
2023-03-29T15:24:21.568Z,101110.16
2023-03-29T15:26:58.838Z,101113.03
2023-03-29T15:29:35.184Z,101096.94
2023-03-29T15:32:01.981Z,101089.44
2023-03-29T15:34:30.263Z,101085.53
2023-03-29T15:36:59.286Z,101083.53
2023-03-29T15:39:27.176Z,101083.53
2023-03-29T15:41:54.219Z,101077.06
2023-03-29T15:44:23.417Z,101079.94
2023-03-29T15:46:50.138Z,101064.50
2023-03-29T15:49:16.852Z,101064.16
2023-03-29T15:51:43.466Z,101059.75
2023-03-29T15:54:11.604Z,101067.56
2023-03-29T15:56:46.581Z,101058.22
2023-03-29T15:59:13.550Z,101074.53
2023-03-29T16:01:40.285Z,101060.09
2023-03-29T16:04:10.914Z,101062.28
2023-03-29T16:06:38.470Z,101057.88
2023-03-29T16:09:05.279Z,101056.34
2023-03-29T16:11:33.565Z,101053.25
2023-03-29T16:14:00.251Z,101056.66
2023-03-29T16:16:26.955Z,101058.78
2023-03-29T16:18:53.762Z,101053.03
2023-03-29T16:21:22.390Z,101060.94
2023-03-29T16:23:50.419Z,101062.44
2023-03-29T16:26:17.582Z,101064.81
2023-03-29T16:28:45.510Z,101075.13
2023-03-29T16:31:13.395Z,101070.88
2023-03-29T16:33:40.932Z,101073.22
2023-03-29T16:36:10.231Z,101073.72
2023-03-29T16:38:37.182Z,101067.75
2023-03-29T16:41:04.364Z,101070.09
2023-03-29T16:43:30.965Z,101076.72
2023-03-29T16:45:58.924Z,101073.44
2023-03-29T16:48:25.601Z,101068.34
2023-03-29T16:50:52.182Z,101065.25
2023-03-29T16:53:19.027Z,101070.00
2023-03-29T16:55:45.977Z,101070.31
2023-03-29T16:58:12.722Z,101067.91
2023-03-29T17:00:39.362Z,101067.91
2023-03-29T17:03:07.421Z,101057.38
2023-03-29T17:05:34.318Z,101044.97
2023-03-29T17:08:01.073Z,101046.13
2023-03-29T17:10:27.753Z,101050.88
2023-03-29T17:12:54.409Z,101047.47
2023-03-29T17:15:21.284Z,101054.22
2023-03-29T17:17:48.120Z,101051.97
2023-03-29T17:20:16.516Z,101049.59
2023-03-29T17:22:43.126Z,101049.88
2023-03-29T17:25:10.071Z,101050.34
2023-03-29T17:27:37.541Z,101049.69
2023-03-29T17:30:05.157Z,101040.84
2023-03-29T17:32:31.865Z,101041.16
2023-03-29T17:34:58.956Z,101047.75
2023-03-29T17:37:27.156Z,101045.34
2023-03-29T17:39:53.854Z,101039.25
2023-03-29T17:42:20.777Z,101049.56
2023-03-29T17:44:47.371Z,101031.19
2023-03-29T17:47:13.952Z,101033.34
2023-03-29T17:49:40.544Z,101044.34
2023-03-29T17:52:07.194Z,101042.94
2023-03-29T17:54:35.210Z,101049.56
2023-03-29T17:57:01.871Z,101052.50
2023-03-29T17:59:28.477Z,101044.84
2023-03-29T18:01:55.204Z,101050.59
2023-03-29T18:04:21.913Z,101044.63
2023-03-29T18:06:48.566Z,101052.03
2023-03-29T18:09:15.219Z,101047.78
2023-03-29T18:11:43.342Z,101048.09
2023-03-29T18:14:10.183Z,101048.25
2023-03-29T18:16:36.872Z,101051.28
2023-03-29T18:19:03.593Z,101050.75
2023-03-29T18:21:30.202Z,101047.31
2023-03-29T18:23:57.177Z,101046.59
2023-03-29T18:26:24.208Z,101047.63
2023-03-29T18:28:52.156Z,101055.03
2023-03-29T18:31:18.742Z,101051.78
2023-03-29T18:33:45.472Z,101045.53
2023-03-29T18:36:13.293Z,101052.09
2023-03-29T18:38:40.900Z,101051.38
2023-03-29T18:41:07.770Z,101054.25
2023-03-29T18:43:34.950Z,101057.13
2023-03-29T18:46:03.400Z,101050.00
2023-03-29T18:48:30.271Z,101061.13
2023-03-29T18:50:57.428Z,101059.41
2023-03-29T18:53:24.484Z,101055.16
2023-03-29T18:55:51.151Z,101057.16
2023-03-29T18:58:17.814Z,101060.88
2023-03-29T19:00:44.803Z,101057.47
2023-03-29T19:03:12.758Z,101061.31
2023-03-29T19:05:39.881Z,101046.94
2023-03-29T19:08:07.372Z,101044.53
2023-03-29T19:10:35.157Z,101042.13
2023-03-29T19:13:01.893Z,101044.13
2023-03-29T19:15:28.541Z,101038.69
2023-03-29T19:17:55.360Z,101036.16
2023-03-29T19:20:23.380Z,101034.59
2023-03-29T19:22:49.957Z,101040.31
2023-03-29T19:25:16.689Z,101028.78
2023-03-29T19:27:43.315Z,101032.66
2023-03-29T19:30:10.853Z,101030.38
2023-03-29T19:32:37.540Z,101035.09
2023-03-29T19:35:04.714Z,101030.97
2023-03-29T19:37:32.716Z,101041.97
2023-03-29T19:39:59.301Z,101029.56
2023-03-29T19:42:25.889Z,101030.59
2023-03-29T19:44:52.472Z,101032.59
2023-03-29T19:47:19.099Z,101039.00
2023-03-29T19:49:45.708Z,101028.34
2023-03-29T19:52:12.367Z,101024.06
2023-03-29T19:54:40.397Z,101025.03
2023-03-29T19:57:07.052Z,101026.06
2023-03-29T19:59:33.664Z,101007.25
2023-03-29T20:02:00.365Z,101015.53
2023-03-29T20:04:26.979Z,101013.84
2023-03-29T20:06:53.613Z,101013.97
2023-03-29T20:09:20.243Z,101008.69
2023-03-29T20:11:48.213Z,101001.75
2023-03-29T20:14:14.903Z,101011.84
2023-03-29T20:16:41.760Z,101012.03
2023-03-29T20:19:09.308Z,101007.47
2023-03-29T20:21:35.974Z,101005.75
2023-03-29T20:24:03.123Z,101005.88
2023-03-29T20:26:29.738Z,101005.19
2023-03-29T20:28:57.781Z,100998.94
2023-03-29T20:31:24.601Z,100997.09
2023-03-29T20:33:51.326Z,100994.53
2023-03-29T20:36:18.065Z,100992.81
2023-03-29T20:38:44.725Z,100990.28
2023-03-29T20:41:11.272Z,100991.94
2023-03-29T20:43:38.032Z,100981.44
2023-03-29T20:46:07.195Z,100974.31
2023-03-29T20:48:33.771Z,100972.59
2023-03-29T20:51:00.589Z,100974.50
2023-03-29T20:53:27.384Z,100970.06
2023-03-29T20:55:54.057Z,100969.22
2023-03-29T20:58:20.702Z,100968.34
2023-03-29T21:00:47.361Z,100971.91
2023-03-29T21:03:15.658Z,100959.38
2023-03-29T21:05:42.352Z,100961.22
2023-03-29T21:08:08.941Z,100961.41
2023-03-29T21:10:35.488Z,100959.69
2023-03-29T21:13:02.580Z,100960.00
2023-03-29T21:15:29.996Z,100959.28
2023-03-29T21:17:56.847Z,100954.88
2023-03-29T21:20:24.964Z,100949.63
2023-03-29T21:22:51.658Z,100949.63
2023-03-29T21:25:18.441Z,100936.25
2023-03-29T21:27:45.063Z,100936.25
2023-03-29T21:30:12.108Z,100928.25
2023-03-29T21:32:39.037Z,100927.41
2023-03-29T21:35:06.600Z,100914.91
2023-03-29T21:37:34.597Z,100918.63
2023-03-29T21:40:01.272Z,100909.78
2023-03-29T21:42:27.921Z,100898.97
2023-03-29T21:44:54.594Z,100908.94
2023-03-29T21:47:21.184Z,100906.94
2023-03-29T21:49:48.113Z,100896.13
2023-03-29T21:52:14.769Z,100897.84
2023-03-29T21:54:42.814Z,100896.84
2023-03-29T21:57:09.796Z,100896.97
2023-03-29T21:59:36.385Z,100897.84
2023-03-29T22:02:03.010Z,100899.53
2023-03-29T22:04:37.102Z,100893.13
2023-03-29T22:07:05.324Z,100902.09
2023-03-29T22:09:33.404Z,100901.22
2023-03-29T22:12:01.397Z,100893.28
2023-03-29T22:14:28.174Z,100894.13
2023-03-29T22:16:54.866Z,100893.28
2023-03-29T22:19:21.543Z,100891.44
2023-03-29T22:21:48.184Z,100893.28
2023-03-29T22:24:16.544Z,100889.56
2023-03-29T22:26:43.167Z,100887.88
2023-03-29T22:29:11.424Z,100891.56
2023-03-29T22:31:38.068Z,100889.56
2023-03-29T22:34:04.696Z,100875.34
2023-03-29T22:36:31.707Z,100881.63
2023-03-29T22:38:58.524Z,100883.47
2023-03-29T22:41:25.937Z,100879.91
2023-03-29T22:43:54.192Z,100879.03
2023-03-29T22:46:23.014Z,100871.94
2023-03-29T22:48:50.186Z,100868.38
2023-03-29T22:51:16.999Z,100863.13
2023-03-29T22:53:43.758Z,100862.97
2023-03-29T22:56:10.402Z,100868.22
2023-03-29T22:58:37.345Z,100865.66
2023-03-29T23:01:05.704Z,100861.13
2023-03-29T23:03:34.154Z,100854.03
2023-03-29T23:06:01.314Z,100840.66
2023-03-29T23:08:28.559Z,100843.22
2023-03-29T23:10:55.275Z,100839.78
2023-03-29T23:13:22.276Z,100842.59
2023-03-29T23:15:50.360Z,100832.81
2023-03-29T23:18:18.481Z,100831.97
2023-03-29T23:20:47.259Z,100832.97
2023-03-29T23:23:14.207Z,100832.97
2023-03-29T23:25:42.319Z,100833.81
2023-03-29T23:28:08.952Z,100844.44
2023-03-29T23:30:35.615Z,100834.66
2023-03-29T23:33:02.293Z,100830.25
2023-03-29T23:35:29.083Z,100828.41
2023-03-29T23:37:57.172Z,100831.25
2023-03-29T23:40:24.542Z,100822.44
2023-03-29T23:42:51.229Z,100820.75
2023-03-29T23:45:18.885Z,100819.88
2023-03-29T23:47:45.928Z,100819.88
2023-03-29T23:50:13.853Z,100822.72
2023-03-29T23:52:41.506Z,100821.06
2023-03-29T23:55:13.995Z,100819.34
2023-03-29T23:57:41.000Z,100817.63
